Time;durP1;ratioP1;P1;durP2;ratioP2;P2;SDS_P1;SDS_P2;PMS_P1;PMS_P2;Temp;Humidity;BMP_temperature;BMP_pressure;BME280_temperature;BME280_humidity;BME280_pressure;Samples;Min_cycle;Max_cycle;Signal;HPM_P1;HPM_P2
2024/02/24 00:01:21;;;;;;;;;;;;;;;21.06;32.24;99099.97;4131417;28;19973;-58
2024/02/24 00:03:23;;;;;;;;;;;;;;;21.06;32.37;99099.97;4131307;28;19942;-56
2024/02/24 00:05:27;;;;;;;;;;;;;;;21.06;32.12;99099.97;4131950;28;19992;-56
2024/02/24 00:07:29;;;;;;;;;;;;;;;21.07;31.98;99101.66;4134667;28;19980;-56
2024/02/24 00:09:30;;;;;;;;;;;;;;;21.06;32.38;99100.78;4134679;28;19932;-57
2024/02/24 00:11:32;;;;;;;;;;;;;;;21.07;32.38;99109.66;4134682;28;19964;-56
2024/02/24 00:13:37;;;;;;;;;;;;;;;21.08;32.38;99113.16;4134413;28;19926;-57
2024/02/24 00:15:39;;;;;;;;;;;;;;;21.08;32.32;99107.81;4134553;28;19930;-56
2024/02/24 00:17:41;;;;;;;;;;;;;;;21.08;32.42;99108.66;4134470;28;20383;-56
2024/02/24 00:19:42;;;;;;;;;;;;;;;21.08;32.19;99111.31;4134062;28;20033;-56
2024/02/24 00:21:44;;;;;;;;;;;;;;;21.06;31.96;99113.34;4133907;28;20017;-56
2024/02/24 00:23:46;;;;;;;;;;;;;;;21.06;32.07;99119.50;4134473;28;19932;-57
2024/02/24 00:25:47;;;;;;;;;;;;;;;21.07;32.25;99109.66;4134180;28;19926;-57
2024/02/24 00:27:49;;;;;;;;;;;;;;;21.07;32.07;99115.03;4134180;28;19936;-56
2024/02/24 00:29:53;;;;;;;;;;;;;;;21.08;32.38;99110.50;4134250;28;19926;-56
2024/02/24 00:31:55;;;;;;;;;;;;;;;21.09;32.09;99113.00;4134055;28;19933;-57
2024/02/24 00:33:56;;;;;;;;;;;;;;;21.09;31.99;99121.00;4116864;28;19932;-56
2024/02/24 00:35:58;;;;;;;;;;;;;;;21.09;32.15;99123.69;4134402;28;19926;-56
2024/02/24 00:37:59;;;;;;;;;;;;;;;21.10;32.50;99122.69;4134001;28;19926;-58
2024/02/24 00:40:01;;;;;;;;;;;;;;;21.10;32.25;99124.53;4134144;28;19973;-57
2024/02/24 00:42:07;;;;;;;;;;;;;;;21.09;32.28;99126.38;4134205;28;19925;-56
2024/02/24 00:44:09;;;;;;;;;;;;;;;21.10;32.19;99130.72;4134015;28;19936;-57
2024/02/24 00:46:11;;;;;;;;;;;;;;;21.10;32.33;99135.25;4134003;28;19926;-56
2024/02/24 00:48:12;;;;;;;;;;;;;;;21.10;32.25;99130.72;4133946;28;19969;-57
2024/02/24 00:50:14;;;;;;;;;;;;;;;21.10;32.18;99132.56;4133718;28;19934;-54
2024/02/24 00:52:16;;;;;;;;;;;;;;;21.08;32.41;99135.38;4134059;28;19965;-57
2024/02/24 00:54:18;;;;;;;;;;;;;;;21.07;32.19;99136.41;4116400;28;19926;-57
2024/02/24 00:56:21;;;;;;;;;;;;;;;21.08;32.18;99127.34;4133869;28;19965;-57
2024/02/24 00:58:22;;;;;;;;;;;;;;;21.09;32.32;99130.88;4134207;28;19926;-57
2024/02/24 01:00:24;;;;;;;;;;;;;;;21.11;32.11;99144.94;4133674;28;19980;-57
2024/02/24 01:02:26;;;;;;;;;;;;;;;21.10;32.16;99140.59;4134144;28;19926;-57
2024/02/24 01:04:28;;;;;;;;;;;;;;;21.12;32.23;99146.59;4133492;28;19929;-57
2024/02/24 01:06:30;;;;;;;;;;;;;;;21.12;32.20;99141.22;4133919;28;19930;-57
2024/02/24 01:08:31;;;;;;;;;;;;;;;21.11;32.03;99144.94;4133612;28;19936;-56
2024/02/24 01:10:33;;;;;;;;;;;;;;;21.11;32.03;99144.94;4133747;28;19973;-57
2024/02/24 01:12:35;;;;;;;;;;;;;;;21.10;32.31;99143.25;4116197;28;19926;-57
2024/02/24 01:14:36;;;;;;;;;;;;;;;21.10;32.05;99137.91;4133607;28;19932;-57
2024/02/24 01:16:44;;;;;;;;;;;;;;;21.10;32.27;99137.91;4116333;28;20005;-56
2024/02/24 01:18:45;;;;;;;;;;;;;;;21.09;32.00;99147.75;4133094;28;19926;-57
2024/02/24 01:20:48;;;;;;;;;;;;;;;21.09;32.26;99147.75;4116040;28;19934;-57
2024/02/24 01:22:53;;;;;;;;;;;;;;;21.10;32.04;99153.94;4133703;28;19926;-57
2024/02/24 01:24:55;;;;;;;;;;;;;;;21.12;31.87;99159.94;4133407;28;19929;-59
2024/02/24 01:26:56;;;;;;;;;;;;;;;21.12;32.03;99166.16;4133586;28;20059;-57
2024/02/24 01:28:58;;;;;;;;;;;;;;;21.13;32.13;99164.31;4133461;28;19950;-56
2024/02/24 01:31:02;;;;;;;;;;;;;;;21.13;32.18;99167.84;4133444;28;20469;-56
2024/02/24 01:33:04;;;;;;;;;;;;;;;21.13;31.96;99164.31;4133203;28;20053;-57
2024/02/24 01:35:07;;;;;;;;;;;;;;;21.14;31.85;99179.34;4133127;28;19926;-57
2024/02/24 01:37:09;;;;;;;;;;;;;;;21.14;31.91;99179.34;4133399;28;19930;-57
2024/02/24 01:39:11;;;;;;;;;;;;;;;21.14;31.98;99174.00;4133336;28;20292;-57
2024/02/24 01:41:12;;;;;;;;;;;;;;;21.14;31.97;99177.53;4133150;28;19926;-57
2024/02/24 01:43:23;;;;;;;;;;;;;;;21.13;32.07;99183.00;4133258;28;19930;-58
2024/02/24 01:45:25;;;;;;;;;;;;;;;21.12;32.10;99192.88;4133157;28;19926;-58
2024/02/24 01:47:27;;;;;;;;;;;;;;;21.13;31.74;99188.34;4132874;28;19930;-57
2024/02/24 01:49:28;;;;;;;;;;;;;;;21.11;31.72;99193.06;4133212;28;19926;-57
2024/02/24 01:51:30;;;;;;;;;;;;;;;21.12;32.05;99192.03;4133223;28;19938;-58
2024/02/24 01:53:31;;;;;;;;;;;;;;;21.14;32.10;99190.91;4133197;28;20344;-57
2024/02/24 01:55:33;;;;;;;;;;;;;;;21.13;32.13;99197.25;4132917;28;20486;-58
2024/02/24 01:57:40;;;;;;;;;;;;;;;21.14;32.05;99201.59;4132977;28;19977;-57
2024/02/24 01:59:41;;;;;;;;;;;;;;;21.14;31.75;99201.59;4132993;28;19926;-58
2024/02/24 02:01:43;;;;;;;;;;;;;;;21.15;31.85;99205.09;4132559;28;19932;-58
2024/02/24 02:03:45;;;;;;;;;;;;;;;21.15;32.07;99197.88;4132943;28;19925;-58
2024/02/24 02:05:47;;;;;;;;;;;;;;;21.15;32.10;99202.41;4132972;28;19957;-57
2024/02/24 02:07:49;;;;;;;;;;;;;;;21.13;31.83;99199.91;4132933;28;20480;-58
2024/02/24 02:09:54;;;;;;;;;;;;;;;21.14;32.08;99200.72;4132617;28;20024;-58
2024/02/24 02:11:55;;;;;;;;;;;;;;;21.13;32.03;99207.94;4132905;28;19937;-58
2024/02/24 02:14:05;;;;;;;;;;;;;;;21.13;31.78;99207.94;4132549;28;19932;-58
2024/02/24 02:16:07;;;;;;;;;;;;;;;21.11;31.87;99206.41;4132508;28;19925;-55
2024/02/24 02:18:09;;;;;;;;;;;;;;;21.10;32.00;99205.56;4132783;28;20419;-56
2024/02/24 02:20:10;;;;;;;;;;;;;;;21.12;31.78;99208.06;4132690;28;20391;-57
2024/02/24 02:22:16;;;;;;;;;;;;;;;21.13;32.01;99207.06;4132720;28;19925;-57
2024/02/24 02:24:17;;;;;;;;;;;;;;;21.13;31.78;99209.75;4132409;28;20021;-55
2024/02/24 02:26:19;;;;;;;;;;;;;;;21.13;31.59;99205.25;4132443;28;19932;-57
2024/02/24 02:28:21;;;;;;;;;;;;;;;21.14;31.52;99211.44;4132086;28;20392;-56
2024/02/24 02:30:22;;;;;;;;;;;;;;;21.15;31.94;99208.59;4132401;28;20373;-56
2024/02/24 02:32:24;;;;;;;;;;;;;;;21.15;31.67;99210.44;4132376;28;19932;-56
2024/02/24 02:34:26;;;;;;;;;;;;;;;21.13;31.71;99218.63;4132511;28;19932;-57
2024/02/24 02:36:28;;;;;;;;;;;;;;;21.14;31.89;99219.44;4132473;28;20295;-57
2024/02/24 02:38:29;;;;;;;;;;;;;;;21.13;31.58;99212.41;4132264;28;20406;-57
2024/02/24 02:40:31;;;;;;;;;;;;;;;21.10;31.59;99208.22;4132424;28;19952;-57
2024/02/24 02:42:32;;;;;;;;;;;;;;;21.11;31.43;99211.75;4132277;28;19952;-57
2024/02/24 02:44:34;;;;;;;;;;;;;;;21.10;31.75;99210.91;4131992;28;19933;-57
2024/02/24 02:46:36;;;;;;;;;;;;;;;21.12;31.55;99200.03;4132060;28;20395;-57
2024/02/24 02:48:37;;;;;;;;;;;;;;;21.11;31.69;99206.41;4132281;28;20016;-57
2024/02/24 02:50:39;;;;;;;;;;;;;;;21.11;31.84;99201.06;4132147;28;20013;-57
2024/02/24 02:52:41;;;;;;;;;;;;;;;21.12;31.57;99203.56;4132232;28;19926;-57
2024/02/24 02:54:42;;;;;;;;;;;;;;;21.12;31.67;99211.59;4132251;28;19932;-56
2024/02/24 02:56:44;;;;;;;;;;;;;;;21.13;31.72;99207.06;4132044;28;20370;-56
2024/02/24 02:58:49;;;;;;;;;;;;;;;21.13;31.80;99213.28;4132095;28;19926;-56
2024/02/24 03:00:50;;;;;;;;;;;;;;;21.12;31.78;99208.91;4114757;28;20361;-56
2024/02/24 03:02:52;;;;;;;;;;;;;;;21.13;31.76;99213.28;4132170;28;20020;-57
2024/02/24 03:04:54;;;;;;;;;;;;;;;21.10;31.72;99205.56;4132044;28;19926;-57
2024/02/24 03:06:55;;;;;;;;;;;;;;;21.10;31.74;99210.91;4131911;28;19933;-56
2024/02/24 03:08:57;;;;;;;;;;;;;;;21.11;31.67;99214.44;4131915;28;19932;-56
2024/02/24 03:10:59;;;;;;;;;;;;;;;21.09;31.56;99219.09;4132053;28;20424;-55
2024/02/24 03:13:01;;;;;;;;;;;;;;;21.07;31.63;99219.25;4132014;28;19984;-57
2024/02/24 03:15:03;;;;;;;;;;;;;;;21.08;31.46;99223.59;4114150;28;19926;-57
2024/02/24 03:17:07;;;;;;;;;;;;;;;21.08;31.75;99222.75;4131887;28;19929;-57
2024/02/24 03:19:09;;;;;;;;;;;;;;;21.08;31.68;99231.59;4131757;28;19932;-57
2024/02/24 03:21:10;;;;;;;;;;;;;;;21.08;31.69;99228.94;4131863;28;20383;-57
2024/02/24 03:23:13;;;;;;;;;;;;;;;21.09;31.69;99233.28;4131976;28;19963;-57
2024/02/24 03:25:14;;;;;;;;;;;;;;;21.10;31.53;99237.63;4131846;28;19969;-57
2024/02/24 03:27:16;;;;;;;;;;;;;;;21.10;31.52;99232.28;4131831;28;20386;-57
2024/02/24 03:29:18;;;;;;;;;;;;;;;21.09;31.36;99230.63;4131687;28;19930;-57
2024/02/24 03:31:20;;;;;;;;;;;;;;;21.08;31.61;99234.28;4131850;28;19926;-57
2024/02/24 03:33:21;;;;;;;;;;;;;;;21.09;31.71;99240.47;4131593;28;19929;-57
2024/02/24 03:35:23;;;;;;;;;;;;;;;21.08;31.34;99242.31;4131545;28;19941;-57
2024/02/24 03:37:24;;;;;;;;;;;;;;;21.06;31.26;99239.78;4131773;28;19929;-57
2024/02/24 03:39:26;;;;;;;;;;;;;;;21.05;31.66;99242.63;4131741;28;19926;-56
2024/02/24 03:41:31;;;;;;;;;;;;;;;21.05;31.49;99237.28;4134149;28;19930;-57
2024/02/24 03:43:33;;;;;;;;;;;;;;;21.05;31.44;99237.28;4134768;28;19981;-56
2024/02/24 03:45:35;;;;;;;;;;;;;;;21.06;31.39;99236.28;4134899;28;19953;-56
2024/02/24 03:47:36;;;;;;;;;;;;;;;21.06;31.55;99231.78;4134905;28;19925;-57
2024/02/24 03:49:38;;;;;;;;;;;;;;;21.08;31.69;99230.78;4135098;28;19926;-57
2024/02/24 03:51:40;;;;;;;;;;;;;;;21.08;31.47;99234.28;4135067;28;20435;-57
2024/02/24 03:53:41;;;;;;;;;;;;;;;21.07;31.57;99232.63;4135031;28;20016;-57
2024/02/24 03:55:43;;;;;;;;;;;;;;;21.07;31.35;99235.31;4134801;28;20008;-57
2024/02/24 03:57:45;;;;;;;;;;;;;;;21.08;31.31;99244.97;4117362;28;19933;-56
2024/02/24 03:59:46;;;;;;;;;;;;;;;21.08;31.46;99244.97;4134980;28;19938;-57
2024/02/24 04:01:48;;;;;;;;;;;;;;;21.08;31.60;99246.81;4134522;28;19948;-57
2024/02/24 04:03:49;;;;;;;;;;;;;;;21.07;31.26;99256.69;4134898;28;19960;-57
2024/02/24 04:05:51;;;;;;;;;;;;;;;21.05;31.62;99262.16;4134752;28;19929;-57
2024/02/24 04:07:53;;;;;;;;;;;;;;;21.04;31.32;99265.84;4134644;28;19933;-56
2024/02/24 04:09:54;;;;;;;;;;;;;;;21.04;31.54;99265.00;4117367;28;19997;-57
2024/02/24 04:11:56;;;;;;;;;;;;;;;21.05;31.32;99261.34;4134413;28;19934;-56
2024/02/24 04:13:58;;;;;;;;;;;;;;;21.04;31.63;99257.81;4134657;28;19926;-57
2024/02/24 04:16:00;;;;;;;;;;;;;;;21.03;31.49;99264.19;4134689;28;19933;-56
2024/02/24 04:18:03;;;;;;;;;;;;;;;21.05;31.47;99272.88;4134603;28;20387;-57
2024/02/24 04:20:05;;;;;;;;;;;;;;;21.05;31.48;99274.72;4134403;28;19926;-57
2024/02/24 04:22:06;;;;;;;;;;;;;;;21.06;31.36;99271.88;4134287;28;19925;-56
2024/02/24 04:24:08;;;;;;;;;;;;;;;21.05;31.32;99283.56;4134297;28;19930;-56
2024/02/24 04:26:09;;;;;;;;;;;;;;;21.05;31.52;99286.22;4134059;28;19988;-56
2024/02/24 04:28:12;;;;;;;;;;;;;;;21.04;31.54;99283.72;4134469;28;19932;-58
2024/02/24 04:30:14;;;;;;;;;;;;;;;21.04;31.33;99281.88;4134432;28;19953;-56
2024/02/24 04:32:15;;;;;;;;;;;;;;;21.04;31.46;99289.06;4134340;28;19977;-56
2024/02/24 04:34:17;;;;;;;;;;;;;;;21.02;31.39;99289.22;4134424;28;19932;-56
2024/02/24 04:36:19;;;;;;;;;;;;;;;21.03;31.17;99298.94;4134382;28;19932;-56
2024/02/24 04:38:20;;;;;;;;;;;;;;;21.01;31.51;99298.25;4134023;28;19940;-57
2024/02/24 04:40:22;;;;;;;;;;;;;;;21.01;31.22;99300.91;4134335;28;19985;-56
2024/02/24 04:42:24;;;;;;;;;;;;;;;21.02;31.42;99307.09;4133823;28;19925;-56
2024/02/24 04:44:26;;;;;;;;;;;;;;;21.01;31.27;99305.41;4133965;28;19925;-56
2024/02/24 04:46:27;;;;;;;;;;;;;;;21.03;31.30;99312.28;4134234;28;20347;-56
2024/02/24 04:48:29;;;;;;;;;;;;;;;21.03;31.43;99309.63;4134102;28;19932;-56
2024/02/24 04:50:31;;;;;;;;;;;;;;;20.90;31.49;99287.81;4133989;28;20017;-56
2024/02/24 04:52:33;;;;;;;;;;;;;;;21.04;31.11;99308.59;4133381;28;19936;-57
2024/02/24 04:54:34;;;;;;;;;;;;;;;21.03;31.42;99308.78;4134088;28;19988;-56
2024/02/24 04:56:36;;;;;;;;;;;;;;;21.02;31.19;99310.63;4133787;28;20336;-56
2024/02/24 04:58:37;;;;;;;;;;;;;;;21.02;31.47;99310.63;4133924;28;20350;-56
2024/02/24 05:00:39;;;;;;;;;;;;;;;21.01;31.47;99316.09;4134061;28;19933;-56
2024/02/24 05:02:41;;;;;;;;;;;;;;;21.01;31.22;99316.09;4133536;28;19926;-57
2024/02/24 05:04:43;;;;;;;;;;;;;;;20.99;31.13;99318.09;4134011;28;19962;-56
2024/02/24 05:06:44;;;;;;;;;;;;;;;20.99;31.15;99323.44;4133858;28;20299;-56
2024/02/24 05:08:46;;;;;;;;;;;;;;;20.98;31.44;99319.91;4133630;28;20028;-57
2024/02/24 05:10:47;;;;;;;;;;;;;;;20.99;31.19;99332.28;4133657;28;19925;-56
2024/02/24 05:12:49;;;;;;;;;;;;;;;21.01;31.34;99342.81;4133665;28;19925;-57
2024/02/24 05:14:50;;;;;;;;;;;;;;;21.01;31.12;99341.00;4133383;28;19926;-56
2024/02/24 05:16:53;;;;;;;;;;;;;;;21.01;31.50;99340.16;4133640;28;19930;-57
2024/02/24 05:18:54;;;;;;;;;;;;;;;21.00;30.96;99360.72;4133902;28;20396;-57
2024/02/24 05:20:57;;;;;;;;;;;;;;;21.02;31.43;99355.19;4133869;28;19991;-57
2024/02/24 05:23:00;;;;;;;;;;;;;;;21.02;31.11;99368.56;4133286;28;19933;-56
2024/02/24 05:25:02;;;;;;;;;;;;;;;21.01;31.39;99372.22;4116110;28;20331;-57
2024/02/24 05:27:04;;;;;;;;;;;;;;;21.00;31.40;99358.03;4133278;28;19933;-56
2024/02/24 05:29:05;;;;;;;;;;;;;;;21.00;31.29;99359.88;4133434;28;19926;-56
2024/02/24 05:31:07;;;;;;;;;;;;;;;21.00;31.41;99362.56;4116135;28;19938;-57
2024/02/24 05:33:09;;;;;;;;;;;;;;;20.98;31.19;99364.53;4133570;28;19926;-57
2024/02/24 05:35:11;;;;;;;;;;;;;;;20.97;31.30;99371.69;4133103;28;19925;-57
2024/02/24 05:37:12;;;;;;;;;;;;;;;20.96;31.07;99364.69;4133521;28;19942;-57
2024/02/24 05:39:14;;;;;;;;;;;;;;;20.97;31.30;99361.00;4115611;28;20618;-56
2024/02/24 05:41:15;;;;;;;;;;;;;;;20.98;31.38;99365.34;4132988;28;19926;-56
2024/02/24 05:43:17;;;;;;;;;;;;;;;20.99;31.08;99364.38;4133493;28;19930;-56
2024/02/24 05:45:19;;;;;;;;;;;;;;;21.00;31.16;99362.56;4133334;28;19984;-56
2024/02/24 05:47:21;;;;;;;;;;;;;;;21.00;31.43;99362.56;4133228;28;19961;-57
2024/02/24 05:49:22;;;;;;;;;;;;;;;21.00;31.39;99359.88;4133174;28;20387;-57
2024/02/24 05:51:24;;;;;;;;;;;;;;;21.00;31.31;99365.22;4132929;28;20318;-57
2024/02/24 05:53:26;;;;;;;;;;;;;;;20.99;31.13;99368.88;4132698;28;19930;-56
2024/02/24 05:55:27;;;;;;;;;;;;;;;20.99;31.35;99376.91;4133172;28;19926;-56
2024/02/24 05:57:30;;;;;;;;;;;;;;;20.98;31.35;99373.38;4132812;28;19926;-57
2024/02/24 05:59:31;;;;;;;;;;;;;;;20.98;31.04;99373.38;4132898;28;19926;-57
2024/02/24 06:01:33;;;;;;;;;;;;;;;20.97;31.08;99373.53;4132694;28;19930;-56
2024/02/24 06:03:35;;;;;;;;;;;;;;;20.96;30.91;99380.72;4132158;28;19933;-56
2024/02/24 06:05:36;;;;;;;;;;;;;;;20.96;31.20;99385.22;4132749;28;19989;-57
2024/02/24 06:07:38;;;;;;;;;;;;;;;20.97;31.03;99386.91;4132737;28;19933;-56
2024/02/24 06:09:40;;;;;;;;;;;;;;;20.98;30.98;99392.09;4115412;28;19932;-56
2024/02/24 06:11:42;;;;;;;;;;;;;;;20.97;31.14;99406.44;4132605;28;19933;-55
2024/02/24 06:13:46;;;;;;;;;;;;;;;20.98;31.12;99401.94;4132693;28;19933;-54
2024/02/24 06:15:47;;;;;;;;;;;;;;;20.99;31.26;99409.81;4132765;28;19926;-56
2024/02/24 06:17:49;;;;;;;;;;;;;;;20.99;31.21;99401.78;4132639;28;19965;-55
2024/02/24 06:19:50;;;;;;;;;;;;;;;20.99;31.22;99404.47;4132467;28;19926;-54
2024/02/24 06:21:52;;;;;;;;;;;;;;;20.98;30.97;99401.94;4132518;28;19929;-54
2024/02/24 06:23:54;;;;;;;;;;;;;;;20.97;30.96;99403.78;4132010;28;19929;-55
2024/02/24 06:25:56;;;;;;;;;;;;;;;20.96;31.24;99404.78;4132632;28;19926;-55
2024/02/24 06:27:58;;;;;;;;;;;;;;;20.96;31.00;99409.28;4132365;28;19965;-55
2024/02/24 06:30:00;;;;;;;;;;;;;;;20.95;31.25;99415.63;4132393;28;20384;-58
2024/02/24 06:32:01;;;;;;;;;;;;;;;20.94;31.22;99416.63;4132417;28;19957;-59
2024/02/24 06:34:03;;;;;;;;;;;;;;;20.93;30.96;99421.13;4132384;28;20017;-56
2024/02/24 06:36:09;;;;;;;;;;;;;;;20.95;31.22;99429.84;4132380;28;20407;-56
2024/02/24 06:38:13;;;;;;;;;;;;;;;20.96;30.92;99436.88;4131753;28;20020;-57
2024/02/24 06:40:15;;;;;;;;;;;;;;;20.97;31.13;99438.50;4132317;28;19980;-57
2024/02/24 06:42:30;;;;;;;;;;;;;;;20.96;31.27;99439.53;4131961;28;19977;-55
2024/02/24 06:44:31;;;;;;;;;;;;;;;20.97;30.96;99451.06;4115014;28;19933;-56
2024/02/24 06:46:33;;;;;;;;;;;;;;;20.96;30.95;99444.03;4132372;28;19952;-57
2024/02/24 06:48:34;;;;;;;;;;;;;;;20.95;31.30;99451.22;4132307;28;20507;-56
2024/02/24 06:50:36;;;;;;;;;;;;;;;20.96;31.26;99454.72;4132036;28;19926;-56
2024/02/24 06:52:38;;;;;;;;;;;;;;;20.96;30.91;99446.69;4131738;28;20446;-57
2024/02/24 06:54:40;;;;;;;;;;;;;;;20.95;30.84;99456.56;4132061;28;19925;-56
2024/02/24 06:56:42;;;;;;;;;;;;;;;20.93;31.22;99465.72;4114690;28;19961;-57
2024/02/24 06:58:43;;;;;;;;;;;;;;;20.93;31.16;99465.72;4132171;28;19926;-57
2024/02/24 07:00:45;;;;;;;;;;;;;;;20.92;31.12;99469.38;4131842;28;19926;-57
2024/02/24 07:02:46;;;;;;;;;;;;;;;20.93;30.98;99484.44;4131988;28;19929;-57
2024/02/24 07:04:49;;;;;;;;;;;;;;;20.95;31.25;99482.44;4132329;28;19981;-57
2024/02/24 07:06:50;;;;;;;;;;;;;;;20.95;30.97;99474.41;4131736;28;20016;-57
2024/02/24 07:08:52;;;;;;;;;;;;;;;20.95;31.27;99480.63;4132056;28;19926;-57
2024/02/24 07:10:54;;;;;;;;;;;;;;;20.96;31.04;99481.44;4131922;28;20381;-57
2024/02/24 07:12:55;;;;;;;;;;;;;;;20.97;30.78;99488.47;4131932;28;20272;-57
2024/02/24 07:14:58;;;;;;;;;;;;;;;20.96;31.02;99487.66;4114575;28;20017;-57
2024/02/24 07:16:59;;;;;;;;;;;;;;;20.96;30.91;99486.78;4131936;28;20414;-58
2024/02/24 07:19:01;;;;;;;;;;;;;;;20.95;31.01;99493.97;4131879;28;19961;-57
2024/02/24 07:21:02;;;;;;;;;;;;;;;20.95;30.83;99487.78;4131411;28;19925;-57
2024/02/24 07:23:04;;;;;;;;;;;;;;;20.95;30.93;99498.47;4131739;28;19926;-57
2024/02/24 07:25:08;;;;;;;;;;;;;;;20.94;30.96;99496.81;4131756;28;19965;-57
2024/02/24 07:27:10;;;;;;;;;;;;;;;20.93;30.98;99500.47;4131804;28;20399;-57
2024/02/24 07:29:11;;;;;;;;;;;;;;;20.93;31.10;99497.78;4131814;28;19926;-58
2024/02/24 07:31:13;;;;;;;;;;;;;;;20.93;31.13;99495.13;4131782;28;19936;-57
2024/02/24 07:33:14;;;;;;;;;;;;;;;20.93;31.17;99495.13;4131876;28;19930;-57
2024/02/24 07:35:16;;;;;;;;;;;;;;;20.94;31.08;99504.81;4131151;28;19926;-58
2024/02/24 07:37:17;;;;;;;;;;;;;;;20.92;30.92;99507.63;4131637;28;19980;-57
2024/02/24 07:39:20;;;;;;;;;;;;;;;20.94;30.95;99504.81;4131429;28;19953;-57
2024/02/24 07:41:21;;;;;;;;;;;;;;;20.95;30.92;99509.16;4131588;28;19932;-57
2024/02/24 07:43:23;;;;;;;;;;;;;;;20.95;30.96;99509.16;4131482;28;20093;-59
2024/02/24 07:45:27;;;;;;;;;;;;;;;20.94;31.20;99502.16;4131623;28;19930;-56
2024/02/24 07:47:29;;;;;;;;;;;;;;;20.95;30.85;99507.34;4131663;28;19932;-56
2024/02/24 07:49:30;;;;;;;;;;;;;;;20.95;30.79;99511.81;4131355;28;19926;-57
2024/02/24 07:51:32;;;;;;;;;;;;;;;20.95;30.87;99509.16;4131522;28;20013;-56
2024/02/24 07:53:33;;;;;;;;;;;;;;;20.93;31.17;99508.50;4131609;28;19925;-58
2024/02/24 07:55:35;;;;;;;;;;;;;;;20.92;30.90;99517.50;4114157;28;20029;-60
2024/02/24 07:57:37;;;;;;;;;;;;;;;20.90;30.96;99518.47;4131608;28;19961;-57
2024/02/24 07:59:38;;;;;;;;;;;;;;;20.93;30.86;99524.53;4114188;28;20391;-57
2024/02/24 08:01:40;;;;;;;;;;;;;;;20.94;30.78;99532.38;4131473;28;19989;-56
2024/02/24 08:03:42;;;;;;;;;;;;;;;20.94;31.14;99535.06;4131093;28;19988;-57
2024/02/24 08:05:43;;;;;;;;;;;;;;;20.95;31.02;99544.75;4131453;28;19944;-57
2024/02/24 08:07:45;;;;;;;;;;;;;;;20.94;31.00;99548.41;4131165;28;20009;-57
2024/02/24 08:09:46;;;;;;;;;;;;;;;20.95;31.11;99550.09;4131329;28;19926;-57
2024/02/24 08:11:48;;;;;;;;;;;;;;;20.96;30.97;99551.78;4131291;28;19981;-57
2024/02/24 08:13:50;;;;;;;;;;;;;;;20.96;31.02;99545.59;4131577;28;20008;-57
2024/02/24 08:15:51;;;;;;;;;;;;;;;20.95;30.67;99549.25;4131417;28;19948;-56
2024/02/24 08:17:53;;;;;;;;;;;;;;;20.95;30.72;99554.59;4131304;28;19965;-56
2024/02/24 08:19:55;;;;;;;;;;;;;;;20.93;30.64;99557.41;4113892;28;20017;-56
2024/02/24 08:21:56;;;;;;;;;;;;;;;20.94;30.97;99561.78;4131233;28;20264;-55
2024/02/24 08:23:58;;;;;;;;;;;;;;;20.93;30.96;99559.28;4131286;28;19930;-55
2024/02/24 08:26:00;;;;;;;;;;;;;;;20.92;30.87;99562.94;4131312;28;19925;-56
2024/02/24 08:28:01;;;;;;;;;;;;;;;20.92;30.96;99558.41;4134339;28;19933;-56
2024/02/24 08:30:03;;;;;;;;;;;;;;;20.92;30.96;99560.25;4134270;28;19926;-56
2024/02/24 08:32:05;;;;;;;;;;;;;;;20.91;30.75;99564.75;4134406;28;19930;-56
2024/02/24 08:34:07;;;;;;;;;;;;;;;20.91;30.71;99562.06;4133856;28;19969;-56
2024/02/24 08:36:13;;;;;;;;;;;;;;;20.90;30.87;99571.09;4134169;28;19933;-55
2024/02/24 08:38:17;;;;;;;;;;;;;;;20.88;31.11;99579.25;4134345;28;20020;-56
2024/02/24 08:40:19;;;;;;;;;;;;;;;20.87;30.86;99582.06;4134265;28;20097;-57
2024/02/24 08:42:20;;;;;;;;;;;;;;;20.85;31.08;99592.94;4134142;28;20009;-56
2024/02/24 08:44:22;;;;;;;;;;;;;;;20.85;30.81;99592.06;4134199;28;19926;-56
2024/02/24 08:46:23;;;;;;;;;;;;;;;20.84;30.80;99593.06;4134137;28;20016;-55
2024/02/24 08:48:26;;;;;;;;;;;;;;;20.82;31.23;99597.72;4133236;28;19976;-56
2024/02/24 08:50:28;;;;;;;;;;;;;;;20.81;31.13;99590.69;4134094;28;19941;-53
2024/02/24 08:52:30;;;;;;;;;;;;;;;20.81;30.86;99588.03;4133986;28;20466;-56
2024/02/24 08:54:43;;;;;;;;;;;;;;;20.79;31.15;99588.19;4133933;28;20311;-57
2024/02/24 08:56:45;;;;;;;;;;;;;;;20.80;30.97;99591.69;4134167;28;20004;-57
2024/02/24 08:58:47;;;;;;;;;;;;;;;20.79;31.08;99590.84;4133927;28;19926;-57
2024/02/24 09:00:54;;;;;;;;;;;;;;;20.79;31.18;99598.00;4133909;28;19962;-58
2024/02/24 09:02:56;;;;;;;;;;;;;;;20.80;31.19;99608.53;4133488;28;20354;-57
2024/02/24 09:04:58;;;;;;;;;;;;;;;20.81;30.95;99604.06;4133969;28;20328;-57
2024/02/24 09:07:00;;;;;;;;;;;;;;;20.79;31.36;99604.22;4133645;28;19926;-57
2024/02/24 09:09:04;;;;;;;;;;;;;;;20.77;31.08;99599.97;4133838;28;19926;-57
2024/02/24 09:11:06;;;;;;;;;;;;;;;20.77;30.93;99606.19;4116503;28;19930;-57
2024/02/24 09:13:10;;;;;;;;;;;;;;;20.77;31.12;99602.66;4133847;28;19936;-57
2024/02/24 09:15:12;;;;;;;;;;;;;;;20.76;31.14;99593.81;4133629;28;19972;-56
2024/02/24 09:17:14;;;;;;;;;;;;;;;20.76;31.25;99601.00;4133555;28;20290;-56
2024/02/24 09:19:17;;;;;;;;;;;;;;;20.77;31.33;99608.84;4133570;28;19930;-56
2024/02/24 09:21:18;;;;;;;;;;;;;;;20.78;31.30;99615.03;4133673;28;20358;-57
2024/02/24 09:23:20;;;;;;;;;;;;;;;20.79;31.28;99612.22;4133378;28;19965;-56
2024/02/24 09:25:22;;;;;;;;;;;;;;;20.80;31.02;99615.72;4133630;28;20315;-54
2024/02/24 09:27:23;;;;;;;;;;;;;;;20.80;31.23;99621.91;4133389;28;19925;-56
2024/02/24 09:29:24;;;;;;;;;;;;;;;20.81;30.92;99620.91;4133559;28;19949;-55
2024/02/24 09:31:28;;;;;;;;;;;;;;;20.82;31.22;99627.94;4132669;28;19965;-57
2024/02/24 09:33:29;;;;;;;;;;;;;;;20.82;30.83;99625.28;4115868;28;20320;-55
2024/02/24 09:35:31;;;;;;;;;;;;;;;20.83;30.95;99626.97;4115990;28;20065;-57
2024/02/24 09:37:33;;;;;;;;;;;;;;;20.83;31.22;99628.81;4133280;28;19949;-58
2024/02/24 09:39:34;;;;;;;;;;;;;;;20.82;31.20;99638.63;4133150;28;19933;-58
2024/02/24 09:41:37;;;;;;;;;;;;;;;20.83;31.20;99628.81;4133267;28;19984;-57
2024/02/24 09:43:39;;;;;;;;;;;;;;;20.84;31.01;99631.31;4133094;28;20237;-57
2024/02/24 09:45:43;;;;;;;;;;;;;;;20.86;31.19;99645.38;4133112;28;19936;-57
2024/02/24 09:47:45;;;;;;;;;;;;;;;20.87;31.25;99643.53;4133047;28;19929;-57
2024/02/24 09:49:46;;;;;;;;;;;;;;;20.87;31.12;99644.38;4115488;28;19934;-57
2024/02/24 09:51:50;;;;;;;;;;;;;;;20.90;31.29;99645.94;4132956;28;19992;-56
2024/02/24 09:53:52;;;;;;;;;;;;;;;20.90;31.24;99643.25;4133089;28;19950;-57
2024/02/24 09:55:53;;;;;;;;;;;;;;;20.92;31.13;99649.28;4133134;28;20375;-56
2024/02/24 09:57:55;;;;;;;;;;;;;;;20.94;31.11;99646.47;4115695;28;19938;-57
2024/02/24 09:59:58;;;;;;;;;;;;;;;20.94;30.83;99641.97;4132639;28;20012;-57
2024/02/24 10:02:00;;;;;;;;;;;;;;;20.95;31.00;99653.47;4115446;28;19969;-58
2024/02/24 10:04:01;;;;;;;;;;;;;;;20.95;30.90;99643.66;4132921;28;19965;-57
2024/02/24 10:06:07;;;;;;;;;;;;;;;20.95;31.23;99654.34;4132813;28;19949;-57
2024/02/24 10:08:10;;;;;;;;;;;;;;;20.95;31.27;99656.16;4128429;28;20067;-56
2024/02/24 10:10:16;;;;;;;;;;;;;;;20.96;31.04;99653.34;4133017;28;19930;-58
2024/02/24 10:12:17;;;;;;;;;;;;;;;20.96;31.10;99653.34;4132515;28;20028;-58
2024/02/24 10:14:20;;;;;;;;;;;;;;;20.97;31.22;99660.34;4132580;28;19926;-57
2024/02/24 10:16:25;;;;;;;;;;;;;;;20.99;30.84;99654.88;4132758;28;19926;-57
2024/02/24 10:18:26;;;;;;;;;;;;;;;20.99;30.84;99655.72;4132583;28;20409;-57
2024/02/24 10:20:29;;;;;;;;;;;;;;;21.01;30.72;99666.25;4132228;28;19933;-57
2024/02/24 10:22:30;;;;;;;;;;;;;;;21.01;30.62;99658.22;4122089;28;19981;-56
2024/02/24 10:24:33;;;;;;;;;;;;;;;21.01;30.62;99660.91;4132337;28;19926;-56
2024/02/24 10:26:36;;;;;;;;;;;;;;;20.99;30.53;99663.75;4121397;28;20016;-56
2024/02/24 10:28:39;;;;;;;;;;;;;;;20.99;30.44;99671.75;4123098;28;19926;-57
2024/02/24 10:30:41;;;;;;;;;;;;;;;20.98;30.24;99675.41;4114566;28;19926;-57
2024/02/24 10:32:42;;;;;;;;;;;;;;;20.97;30.64;99663.03;4132187;28;19981;-57
2024/02/24 10:34:44;;;;;;;;;;;;;;;20.98;30.21;99685.28;4125070;28;19926;-57
2024/02/24 10:36:49;;;;;;;;;;;;;;;20.97;30.47;99673.72;4115876;28;19945;-58